Hlavní strana
METAR-TAF:

METAR-TAF

Letiště :

Ringkøbing-Skjern, Dánsko

zeměpisná šířka: 56-00N, zeměpisná délka: 008-21E, výška: 5 m

Aktuální stav počasí

Zpráva byla vytvořena před 14 hodinami a 42 minutami, v 13:50 UTC
Jihozápadní vítr 11 kt
Teplota 10°C
Vlhkost vzduchu 87%
Tlak 1022 hPa
Viditelnost 10 km a více
Skoro jasno ve výšce 3000 ft
Polojasno ve výšce 8000 ft

METAR: EKVJ 041350Z 22011KT 9999 FEW030 SCT080 10/08 Q1022

Čas: 06:32 (04:32 UTC)

Předpověď počasí

Zpráva byla vytvořena před 19 hodinami a 33 minutami, v 08:59 UTC
Předpověď platná od 04 v 09 UTC do 04 v 14 UTC
Jihojihozápadní vítr 10 kt
Viditelnost 10 km a více
Oblačno až skoro zataženo ve výšce 2000 ft
Dočasný
od 04 v 09 UTC do 04 v 14 UTC
Oblačno až skoro zataženo ve výšce 1000 ft
Polojasno ve výšce 2000 ft, Cumulonimbus.
dešťové přeháňky

TAF: EKVJ 040859Z 0409/0414 21010KT 9999 BKN020 TEMPO 0409/0414 SHRA BKN010 SCT020CB

Stav a předpovědi počasí z více než 4 000 letišť (zprávy METAR a TAF).

Červené a žluté tečky na mapě představují dostupné meteorologické stanice.

Když kurzor umístíte na tečku, zobrazí se název stanice.

Pak kliknutím zobrazíte stav a předpověď počasí.

Chcete-li změnit mapu, kliknutím na zelené tlačítko se znaménkem +mapu přiblížíte, kliknutím na zelené tlačítko se znaménkem – mapu oddálíte a kliknutím na zelené šipky přejdete na sousední mapy.


METAR-TAF: